Terminal Aerodrome Forecast
Issued by NWS

Home | Current Version | Previous Version | Text Only | Print | Product List | Glossary On
Versions: 1 2 3 4 5 6 7 8 9 10 11 12
953
FTUS45 KREV 250526
TAFMMH
TAF
KMMH 250526Z 2506/2606 24016G32KT P6SM SCT070 BKN180
     FM250800 28010G18KT P6SM FEW070 BKN180
     FM251100 32007KT P6SM SCT180
     FM251700 23014G25KT P6SM FEW100
     FM260200 26011G19KT P6SM SKC=

USA.gov is the U.S. government's official web portal to all federal, state and local government web resources and services.